M I D A S
Marine Information and Data Acquisition System
Tripno 313 of the Zeeleeuw from 2002-04-16 07:30:55 to 2002-04-16 14:15:32
Back to CruiseResearch ActivitiesStationsMapUnderway DataData graphs

EquipmentUnitsComment
TimeDGPSUTC
LatitudeDGPSDM.mWGS84
LongitudeDGPSDM.mWGS84
TemperatureSBE03/SBE38deg celciusITS90
ConductivitySBE21S/mITS90
SalinitySBE21 Practical Salinity Units
ChlorophylAChelsea fluorimeterg/lCalibrated in Aceton
Missing or incorrect values are displayed as -999
Sea surface data collected by the RV Zeeleeuw from 2002-04-16 07:30:55 to 2002-04-16 14:15:32
                                                                                    Next 1000 lines
Time Latitude Longitude Temperature Conductivity Salinity ChlorophylA
2002-04-16 07:31:03 51°13.687 2°55.905 15.295853 0.262167 1.415229  
2002-04-16 07:31:08 51°13.686 2°55.905 15.295853 0.262167 1.415229  
2002-04-16 07:31:13 51°13.686 2°55.905 15.29607 0.262167 1.415229  
2002-04-16 07:31:18 51°13.686 2°55.905 15.298496 0.262167 1.41525  
2002-04-16 07:31:23 51°13.686 2°55.905 15.300445 0.262167 1.41525  
2002-04-16 07:31:28 51°13.686 2°55.905 15.300921 0.262167 1.415271  
2002-04-16 07:31:33 51°13.686 2°55.905 15.302047 0.262167 1.415271  
2002-04-16 07:31:38 51°13.686 2°55.905 15.302047 0.262167 1.415271  
2002-04-16 07:31:43 51°13.686 2°55.905 15.301224 0.262167 1.415292  
2002-04-16 07:31:47 51°13.686 2°55.905 15.302653 0.262167 1.415292  
2002-04-16 07:31:53 51°13.686 2°55.905 15.304949 0.262167 1.415314  
2002-04-16 07:31:58 51°13.686 2°55.904 15.306465 0.262167 1.415314  
2002-04-16 07:32:03 51°13.686 2°55.903 15.30941 0.262167 1.415335  
2002-04-16 07:32:08 51°13.686 2°55.902 15.30941 0.262167 1.415335  
2002-04-16 07:32:13 51°13.687 2°55.9 15.311575 0.262167 1.415356  
2002-04-16 07:32:18 51°13.687 2°55.897 15.317161 0.262167 1.415356  
2002-04-16 07:32:23 51°13.688 2°55.894 15.322184 0.262167 1.415399  
2002-04-16 07:32:28 51°13.688 2°55.89 15.324175 0.262167 1.415399  
2002-04-16 07:32:34 51°13.689 2°55.884 15.325041 0.262167 1.415378  
2002-04-16 07:32:38 51°13.689 2°55.881 15.325041 0.262167 1.415378  
2002-04-16 07:32:43 51°13.69 2°55.876 15.325171 0.262167 1.415399  
2002-04-16 07:32:49 51°13.69 2°55.87 15.324911 0.262167 1.415399  
2002-04-16 07:32:53 51°13.691 2°55.866 15.327033 0.262167 1.41542  
2002-04-16 07:32:58 51°13.691 2°55.86 15.32595 0.262167 1.41542  
2002-04-16 07:33:04 51°13.692 2°55.854 15.325041 0.262167 1.415442  
2002-04-16 07:33:09 51°13.692 2°55.848 15.325041 0.262167 1.415442  
2002-04-16 07:33:14 51°13.691 2°55.842 15.325431 0.262167 1.415484  
2002-04-16 07:33:18 51°13.691 2°55.838 15.323959 0.262167 1.415463  
2002-04-16 07:33:23 51°13.691 2°55.832 15.32647 0.262167 1.415505  
2002-04-16 07:33:29 51°13.691 2°55.824 15.326297 0.262167 1.415505  
2002-04-16 07:33:34 51°13.69 2°55.818 15.324651 0.262167 1.415527  
2002-04-16 07:33:39 51°13.69 2°55.813 15.324651 0.262167 1.415527  
2002-04-16 07:33:43 51°13.69 2°55.808 15.322703 0.262167 1.415527  
2002-04-16 07:33:49 51°13.689 2°55.801 15.321967 0.262167 1.415548  
2002-04-16 07:33:53 51°13.689 2°55.796 15.319326 0.262068 1.415006  
2002-04-16 07:33:58 51°13.689 2°55.79 15.316555 0.262167 1.415591  
2002-04-16 07:34:03 51°13.688 2°55.784 15.31885 0.262167 1.415569  
2002-04-16 07:34:09 51°13.688 2°55.777 15.31885 0.262167 1.415569  
2002-04-16 07:34:13 51°13.688 2°55.773 15.321447 0.262167 1.415591  
2002-04-16 07:34:18 51°13.687 2°55.767 15.324002 0.262167 1.415591  
2002-04-16 07:34:22 51°13.687 2°55.763 15.325734 0.262068 1.415027  
2002-04-16 07:34:28 51°13.686 2°55.757 15.323049 0.262167 1.415612  
2002-04-16 07:34:33 51°13.686 2°55.753 15.322703 0.262167 1.415612  
2002-04-16 07:34:39 51°13.686 2°55.749 15.322703 0.262167 1.415612  
2002-04-16 07:34:43 51°13.685 2°55.749 15.322616 0.262167 1.415633  
2002-04-16 07:34:48 51°13.686 2°55.749 15.30824 0.262068 1.41507  
2002-04-16 07:34:53 51°13.686 2°55.751 15.286757 0.262167 1.415612  
2002-04-16 07:34:58 51°13.687 2°55.754 15.271636 0.262068 1.41507  
2002-04-16 07:35:03 51°13.689 2°55.757 15.256729 0.262068 1.41507  
2002-04-16 07:35:08 51°13.692 2°55.76 15.256729 0.262068 1.41507  
2002-04-16 07:35:13 51°13.694 2°55.762 15.274453 0.262068 1.415112  
2002-04-16 07:35:18 51°13.697 2°55.764 15.295464 0.262068 1.41507  
2002-04-16 07:35:23 51°13.698 2°55.766 15.313523 0.262068 1.414899  
2002-04-16 07:35:28 51°13.7 2°55.768 15.327119 0.262068 1.414899  
2002-04-16 07:35:33 51°13.701 2°55.768 15.332488 0.262068 1.415134  
2002-04-16 07:35:38 51°13.701 2°55.769 15.332488 0.262068 1.415134  
2002-04-16 07:35:42 51°13.701 2°55.769 15.341535 0.262068 1.415176  
2002-04-16 07:35:48 51°13.7 2°55.769 15.352399 0.262068 1.415049  
2002-04-16 07:35:53 51°13.698 2°55.768 15.342357 0.262068 1.414985  
2002-04-16 07:35:58 51°13.696 2°55.767 15.344262 0.262068 1.415027  
2002-04-16 07:36:03 51°13.693 2°55.766 15.338029 0.262068 1.415112  
2002-04-16 07:36:09 51°13.69 2°55.764 15.338029 0.262068 1.415112  
2002-04-16 07:36:13 51°13.689 2°55.763 15.33634 0.262068 1.415198  
2002-04-16 07:36:18 51°13.688 2°55.763 15.333007 0.262068 1.415283  
2002-04-16 07:36:23 51°13.689 2°55.763 15.317637 0.262068 1.415304  
2002-04-16 07:36:29 51°13.691 2°55.764 15.29607 0.262068 1.415325  
2002-04-16 07:36:33 51°13.694 2°55.764 15.281038 0.262068 1.415304  
2002-04-16 07:36:39 51°13.699 2°55.763 15.281038 0.262068 1.415304  
2002-04-16 07:36:44 51°13.704 2°55.761 15.264053 0.262068 1.41524  
2002-04-16 07:36:49 51°13.71 2°55.757 15.256079 0.262068 1.415155  
2002-04-16 07:36:53 51°13.716 2°55.753 15.262363 0.262068 1.415112  
2002-04-16 07:36:58 51°13.723 2°55.747 15.292302 0.262068 1.415134  
2002-04-16 07:37:03 51°13.73 2°55.74 15.253262 0.282246 1.507956  
2002-04-16 07:37:07 51°13.736 2°55.735 15.253262 0.282246 1.507956  
2002-04-16 07:37:13 51°13.746 2°55.726 12.839508 0.262068 1.415262  
2002-04-16 07:37:18 51°13.754 2°55.719 11.865304 0.073068 0.374173  
2002-04-16 07:37:23 51°13.762 2°55.71 11.141596 0.390328 2.188322  
2002-04-16 07:37:27 51°13.768 2°55.703 10.797685 1.110383 6.943332  
2002-04-16 07:37:32 51°13.776 2°55.694 10.510438 1.77642 12.223461  
2002-04-16 07:37:38 51°13.786 2°55.684 10.510438 1.77642 12.223461  
2002-04-16 07:37:43 51°13.795 2°55.676 10.428062 2.278688 16.967686  
2002-04-16 07:37:48 51°13.803 2°55.668 10.342457 2.399645 18.268997  
2002-04-16 07:37:53 51°13.811 2°55.661 10.17933 2.77863 22.032755  
2002-04-16 07:37:58 51°13.819 2°55.655 10.056294 2.990512 24.313738  
2002-04-16 07:38:03 51°13.827 2°55.649 10.008478 2.96039 24.592973  
2002-04-16 07:38:08 51°13.835 2°55.643 10.008478 2.96039 24.592973  
2002-04-16 07:38:12 51°13.841 2°55.639 10.020482 2.928665 24.634689  
2002-04-16 07:38:18 51°13.851 2°55.632 10.039422 2.880726 24.439954  
2002-04-16 07:38:23 51°13.858 2°55.627 9.966681 2.842599 24.286397  
2002-04-16 07:38:27 51°13.864 2°55.622 9.944153 2.804974 24.058203  
2002-04-16 07:38:33 51°13.874 2°55.616 9.832853 2.786163 23.990498  
2002-04-16 07:38:38 51°13.881 2°55.611 9.832853 2.786163 23.990498  
2002-04-16 07:38:42 51°13.887 2°55.607 9.869426 2.764851 23.885057  
2002-04-16 07:38:48 51°13.896 2°55.601 9.831207 2.749043 23.810638  
2002-04-16 07:38:53 51°13.904 2°55.596 9.792354 2.74324 23.80901  
2002-04-16 07:38:58 51°13.911 2°55.59 9.736763 2.737538 23.778036  
2002-04-16 07:39:02 51°13.917 2°55.586 9.728192 2.748044 23.919419  
2002-04-16 07:39:07 51°13.924 2°55.581 9.728192 2.748044 23.919419  
2002-04-16 07:39:13 51°13.933 2°55.575 9.695827 2.749345 23.967212  
2002-04-16 07:39:18 51°13.94 2°55.57 9.707088 2.764054 24.151987  
2002-04-16 07:39:23 51°13.947 2°55.564 9.671414 2.774461 24.272444  
2002-04-16 07:39:28 51°13.954 2°55.559 9.695356 2.775562 24.319606  
2002-04-16 07:39:33 51°13.961 2°55.554 9.695356 2.799078 24.584612  
2002-04-16 07:39:38 51°13.968 2°55.548 9.695356 2.799078 24.584612  
2002-04-16 07:39:42 51°13.973 2°55.544 9.650198 2.806183 24.683443  
2002-04-16 07:39:48 51°13.981 2°55.538 9.672828 2.819693 24.841912  
2002-04-16 07:39:53 51°13.989 2°55.533 9.645058 2.826998 24.931099  
2002-04-16 07:39:58 51°13.996 2°55.527 9.652839 2.836906 25.053001  
2002-04-16 07:40:03 51°14.004 2°55.521 9.645153 2.846413 25.158392  
2002-04-16 07:40:08 51°14.013 2°55.515 9.645153 2.846413 25.158392  
2002-04-16 07:40:12 51°14.02 2°55.509 9.64171 2.845813 25.15928  
2002-04-16 07:40:18 51°14.03 2°55.501 9.627655 2.859324 25.295405  
2002-04-16 07:40:23 51°14.039 2°55.494 9.650528 2.861425 25.323802  
2002-04-16 07:40:28 51°14.048 2°55.487 9.632702 2.872134 25.434486  
2002-04-16 07:40:33 51°14.058 2°55.479 9.637324 2.87874 25.513763  
2002-04-16 07:40:38 51°14.068 2°55.471 9.637324 2.87874 25.513763  
2002-04-16 07:40:42 51°14.076 2°55.465 9.621852 2.874236 25.477185  
2002-04-16 07:40:48 51°14.088 2°55.455 9.620437 2.881342 25.55574  
2002-04-16 07:40:53 51°14.098 2°55.446 9.600668 2.885345 25.594872  
2002-04-16 07:40:58 51°14.109 2°55.436 9.614634 2.887047 25.621247  
2002-04-16 07:41:03 51°14.12 2°55.427 9.594674 2.887047 25.62182  
2002-04-16 07:41:08 51°14.131 2°55.418 9.594674 2.887047 25.62182  
2002-04-16 07:41:13 51°14.142 2°55.407 9.591323 2.897456 25.728254  
2002-04-16 07:41:18 51°14.153 2°55.397 9.577965 2.904462 25.804919  
2002-04-16 07:41:23 51°14.164 2°55.385 9.561394 2.910468 25.867214  
2002-04-16 07:41:29 51°14.177 2°55.371 9.553791 2.907965 25.839229  
2002-04-16 07:41:33 51°14.186 2°55.361 9.537213 2.925181 26.023071  
2002-04-16 07:41:39 51°14.199 2°55.346 9.537213 2.925181 26.023071  
2002-04-16 07:41:44 51°14.21 2°55.332 9.533292 2.929685 26.072512  
2002-04-16 07:41:49 51°14.221 2°55.318 9.534993 2.932288 26.107996  
2002-04-16 07:41:54 51°14.231 2°55.303 9.525025 2.93449 26.133131  
2002-04-16 07:41:59 51°14.241 2°55.288 9.510614 2.940195 26.195627  
2002-04-16 07:42:03 51°14.249 2°55.275 9.510756 2.948604 26.285917  
2002-04-16 07:42:09 51°14.261 2°55.256 9.510756 2.948604 26.285917  
2002-04-16 07:42:13 51°14.269 2°55.242 9.508109 2.953709 26.346754  
2002-04-16 07:42:19 51°14.28 2°55.222 9.500689 2.959514 26.415738  
2002-04-16 07:42:24 51°14.289 2°55.204 9.490385 2.972728 26.550039  
2002-04-16 07:42:29 51°14.299 2°55.186 9.487455 2.969725 26.530585  
2002-04-16 07:42:33 51°14.306 2°55.172 9.496294 2.98434 26.681264  
2002-04-16 07:42:38 51°14.315 2°55.153 9.496294 2.98434 26.681264  
2002-04-16 07:42:43 51°14.323 2°55.134 9.496294 2.99385 26.778706  
2002-04-16 07:42:49 51°14.333 2°55.109 9.479181 2.997654 26.825303  
2002-04-16 07:42:53 51°14.339 2°55.093 9.479134 3.003059 26.884136  
2002-04-16 07:42:59 51°14.348 2°55.068 9.483389 3.005362 26.911123  
2002-04-16 07:43:04 51°14.355 2°55.047 9.476865 3.010668 26.969631  
2002-04-16 07:43:09 51°14.361 2°55.026 9.476865 3.010668 26.969631  
2002-04-16 07:43:13 51°14.365 2°55.008 9.47417 3.015473 27.021404  
2002-04-16 07:43:18 51°14.368 2°54.986 9.471616 3.016574 27.035948  
2002-04-16 07:43:23 51°14.371 2°54.962 17.448254 3.014973 27.024363  
2002-04-16 07:43:28 51°14.373 2°54.939 10.760793 3.023182 27.107425  
2002-04-16 07:43:34 51°14.375 2°54.91 10.651757 3.027887 27.156449  
2002-04-16 07:43:39 51°14.376 2°54.886 10.651757 3.027887 27.156449  
2002-04-16 07:43:43 51°14.377 2°54.866 10.415993 3.028988 27.169801  
2002-04-16 07:43:48 51°14.378 2°54.842 10.445347 3.032192 27.205816  
2002-04-16 07:43:53 51°14.378 2°54.817 10.370025 3.038999 27.278177  
2002-04-16 07:43:58 51°14.378 2°54.792 10.31049 3.034394 27.233157  
2002-04-16 07:44:03 51°14.379 2°54.766 10.573511 3.040201 27.29562  
2002-04-16 07:44:08 51°14.378 2°54.74 10.573511 3.040201 27.29562  
2002-04-16 07:44:13 51°14.377 2°54.714 10.253937 3.041703 27.313586  
2002-04-16 07:44:18 51°14.376 2°54.688 10.274116 3.043404 27.333542  
2002-04-16 07:44:22 51°14.376 2°54.666 10.319405 3.049612 27.400665  
2002-04-16 07:44:28 51°14.375 2°54.634 10.374456 3.053917 27.444001  
2002-04-16 07:44:33 51°14.373 2°54.607 10.448701 3.062727 27.53704  
2002-04-16 07:44:38 51°14.373 2°54.58 10.448701 3.062727 27.53704  
2002-04-16 07:44:43 51°14.372 2°54.552 10.25688 3.066632 27.585773  
2002-04-16 07:44:48 51°14.37 2°54.525 10.290741 3.078646 27.708298  
2002-04-16 07:44:53 51°14.369 2°54.497 10.205377 3.088758 27.820789  
2002-04-16 07:44:58 51°14.366 2°54.47 10.542866 3.089159 27.830432  
2002-04-16 07:45:03 51°14.363 2°54.442 10.689221 3.110185 28.04741  
2002-04-16 07:45:07 51°14.361 2°54.42 10.689221 3.110185 28.04741  
2002-04-16 07:45:13 51°14.355 2°54.387 10.350948 3.118295 28.135877  
2002-04-16 07:45:18 51°14.349 2°54.36 10.59178 3.128108 28.237579  
2002-04-16 07:45:23 51°14.343 2°54.333 10.344557 3.13722 28.332997  
2002-04-16 07:45:28 51°14.336 2°54.306 10.6486 3.143027 28.394196  
2002-04-16 07:45:33 51°14.327 2°54.28 10.41548 3.151138 28.481657  
2002-04-16 07:45:38 51°14.319 2°54.254 10.41548 3.151138 28.481657  
2002-04-16 07:45:43 51°14.31 2°54.228 10.149949 3.157747 28.55094  
2002-04-16 07:45:48 51°14.301 2°54.203 10.453918 3.166258 28.644476  
2002-04-16 07:45:53 51°14.291 2°54.177 10.298819 3.171666 28.698579  
2002-04-16 07:45:58 51°14.282 2°54.15 10.345863 3.173067 28.715208  
2002-04-16 07:46:03 51°14.274 2°54.123 10.536772 3.179777 28.78758  
2002-04-16 07:46:08 51°14.265 2°54.096 10.536772 3.179777 28.78758  
2002-04-16 07:46:13 51°14.256 2°54.069 10.384341 3.178475 28.779759  
2002-04-16 07:46:18 51°14.247 2°54.042 10.726199 3.184984 28.844952  
2002-04-16 07:46:23 51°14.238 2°54.015 10.347962 3.184984 28.846259  
2002-04-16 07:46:28 51°14.229 2°53.988 10.346796 3.184984 28.846912  
2002-04-16 07:46:33 51°14.221 2°53.961 10.353187 3.191193 28.90781  
2002-04-16 07:46:38 51°14.211 2°53.934 10.353187 3.191193 28.90781  
2002-04-16 07:46:42 51°14.204 2°53.912 10.351648 3.192594 28.920549  
2002-04-16 07:46:48 51°14.194 2°53.878 10.240527 3.190692 28.901484  
2002-04-16 07:46:53 51°14.185 2°53.851 10.164875 2.959016 26.590646  
2002-04-16 07:46:58 51°14.175 2°53.824 10.431604 3.199504 28.988486  
2002-04-16 07:47:03 51°14.167 2°53.796 10.315251 3.201006 29.002229  
2002-04-16 07:47:07 51°14.159 2°53.774 10.315251 3.201006 29.002229  
2002-04-16 07:47:13 51°14.148 2°53.74 10.469705 3.201507 29.007905  
2002-04-16 07:47:17 51°14.141 2°53.718 10.467331 3.202008 29.012924  
2002-04-16 07:47:23 51°14.131 2°53.684 10.427317 3.202408 29.017596  
2002-04-16 07:47:28 51°14.121 2°53.657 10.31259 3.202308 29.011993  
2002-04-16 07:47:33 51°14.112 2°53.628 10.429181 3.20361 29.027014  
2002-04-16 07:47:38 51°14.103 2°53.601 10.429181 3.20361 29.027014  
2002-04-16 07:47:43 51°14.093 2°53.573 10.543703 3.203309 29.024002  
2002-04-16 07:47:48 51°14.084 2°53.545 10.35426 3.20351 29.027982  
2002-04-16 07:47:53 51°14.075 2°53.517 10.316464 3.20341 29.02895  
2002-04-16 07:47:58 51°14.065 2°53.489 10.545145 3.20371 29.03262  
2002-04-16 07:48:03 51°14.056 2°53.462 10.391428 3.204411 29.037017  
2002-04-16 07:48:08 51°14.047 2°53.432 10.391428 3.204411 29.037017  
2002-04-16 07:48:13 51°14.037 2°53.405 9.971843 3.203209 29.030888  
2002-04-16 07:48:18 51°14.028 2°53.376 10.161132 3.20351 29.033243  
2002-04-16 07:48:23 51°14.019 2°53.348 10.127297 3.204311 29.040618  
2002-04-16 07:48:28 51°14.009 2°53.32 10.665733 3.203209 29.03023  
2002-04-16 07:48:33 51°13.999 2°53.292 10.587179 3.20341 29.031581  
2002-04-16 07:48:38 51°13.989 2°53.264 10.587179 3.20341 29.031581  
2002-04-16 07:48:42 51°13.981 2°53.242 10.319125 3.20341 29.032238  
2002-04-16 07:48:48 51°13.969 2°53.208 10.165249 3.20401 29.037605  
2002-04-16 07:48:53 51°13.959 2°53.18 10.2036 3.204111 29.041241  
2002-04-16 07:48:58 51°13.949 2°53.152 10.36107 3.204511 29.043284  
2002-04-16 07:49:03 51°13.94 2°53.123 10.245667 3.204711 29.04595  
2002-04-16 07:49:08 51°13.93 2°53.095 10.245667 3.204711 29.04595  
2002-04-16 07:49:13 51°13.92 2°53.067 10.244265 3.204912 29.045326  
2002-04-16 07:49:18 51°13.91 2°53.038 10.474874 3.205613 29.052355  
2002-04-16 07:49:23 51°13.9 2°53.01 10.546401 3.206113 29.05606  
2002-04-16 07:49:28 51°13.89 2°52.982 10.397395 3.206714 29.065376  
2002-04-16 07:49:33 51°13.88 2°52.953 10.163144 3.206915 29.066726  
2002-04-16 07:49:38 51°13.871 2°52.924 10.163144 3.206915 29.066726  
2002-04-16 07:49:43 51°13.86 2°52.896 10.389843 3.207415 29.072406  
2002-04-16 07:49:48 51°13.851 2°52.868 10.164594 3.207115 29.069393  
2002-04-16 07:49:53 51°13.841 2°52.839 10.433654 3.207115 29.068735  
2002-04-16 07:49:58 51°13.831 2°52.811 10.432209 3.207215 29.071715  
2002-04-16 07:50:03 51°13.821 2°52.782 10.430066 3.207215 29.071715  
2002-04-16 07:50:08 51°13.811 2°52.753 10.430066 3.207215 29.071715  
2002-04-16 07:50:13 51°13.801 2°52.725 10.811676 3.206714 29.066693  
2002-04-16 07:50:18 51°13.792 2°52.696 10.193874 3.206414 29.065656  
2002-04-16 07:50:23 51°13.781 2°52.668 10.391102 3.206514 29.06666  
2002-04-16 07:50:28 51°13.771 2°52.639 10.12271 3.205212 29.05492  
2002-04-16 07:50:33 51°13.761 2°52.611 10.348942 3.204211 29.042245  
2002-04-16 07:50:38 51°13.751 2°52.582 10.348942 3.204211 29.042245  
2002-04-16 07:50:43 51°13.741 2°52.553 10.122148 3.20361 29.038852  
2002-04-16 07:50:47 51°13.733 2°52.531 10.308856 3.204611 29.048894  
2002-04-16 07:50:53 51°13.722 2°52.496 10.118777 3.203009 29.033484  
2002-04-16 07:50:58 51°13.711 2°52.467 10.264728 3.202809 29.033449  
2002-04-16 07:51:03 51°13.702 2°52.439 10.343857 3.203109 29.034488  
2002-04-16 07:51:08 51°13.692 2°52.41 10.343857 3.203109 29.034488  
2002-04-16 07:51:13 51°13.682 2°52.38 10.420979 3.202108 29.028392  
2002-04-16 07:51:18 51°13.672 2°52.352 10.000177 3.200806 29.017309  
2002-04-16 07:51:22 51°13.664 2°52.329 10.009369 3.201507 29.024997  
2002-04-16 07:51:28 51°13.653 2°52.295 9.932651 3.201607 29.027317  
2002-04-16 07:51:33 51°13.642 2°52.266 10.166419 3.201207 29.023299  
2002-04-16 07:51:38 51°13.633 2°52.237 10.166419 3.201207 29.023299  
2002-04-16 07:51:43 51°13.623 2°52.208 10.05128 3.200706 29.022224  
2002-04-16 07:51:48 51°13.613 2°52.18 10.091243 3.201006 29.02458  
2002-04-16 07:51:53 51°13.603 2°52.151 10.301994 3.201407 29.029914  
2002-04-16 07:51:58 51°13.593 2°52.122 9.902361 3.201908 29.032963  
2002-04-16 07:52:03 51°13.583 2°52.094 10.436076 3.202709 29.039025  
2002-04-16 07:52:07 51°13.575 2°52.071 10.436076 3.202709 29.039025  
2002-04-16 07:52:13 51°13.563 2°52.036 10.360184 3.20351 29.045745  
2002-04-16 07:52:18 51°13.553 2°52.007 10.478226 3.204812 29.057487  
2002-04-16 07:52:23 51°13.543 2°51.978 10.091243 3.206114 29.069888  
2002-04-16 07:52:27 51°13.535 2°51.955 10.549099 3.207816 29.084989  
2002-04-16 07:52:33 51°13.523 2°51.921 10.162442 3.208517 29.092021  
2002-04-16 07:52:38 51°13.514 2°51.892 10.162442 3.208517 29.092021  
2002-04-16 07:52:43 51°13.504 2°51.863 10.319265 3.209719 29.103418  
2002-04-16 07:52:48 51°13.494 2°51.834 10.042 3.209318 29.099399  
2002-04-16 07:52:53 51°13.485 2°51.805 10.347822 3.209318 29.09808  
2002-04-16 07:52:58 51°13.475 2°51.776 10.042375 3.208417 29.091017  
2002-04-16 07:53:03 51°13.465 2°51.747 10.389936 3.206614 29.072934  
2002-04-16 07:53:08 51°13.455 2°51.718 10.389936 3.206614 29.072934  
2002-04-16 07:53:13 51°13.446 2°51.689 10.242022 3.206614 29.072275  
2002-04-16 07:53:18 51°13.436 2°51.66 10.432629 3.206614 29.072934  
2002-04-16 07:53:23 51°13.427 2°51.631 10.470916 3.205212 29.060846  
2002-04-16 07:53:28 51°13.417 2°51.602 10.357572 3.204712 29.057799  
2002-04-16 07:53:33 51°13.407 2°51.573 10.240527 3.204511 29.057107  
2002-04-16 07:53:38 51°13.397 2°51.543 10.240527 3.204511 29.057107  
2002-04-16 07:53:42 51°13.389 2°51.52 10.163051 3.204712 29.060434  
2002-04-16 07:53:48 51°13.377 2°51.486 10.426758 3.205012 29.064107  
2002-04-16 07:53:53 51°13.368 2°51.456 10.238658 3.205813 29.069509  
2002-04-16 07:53:58 51°13.358 2°51.427 10.199065 3.206414 29.075537  
2002-04-16 07:54:03 51°13.347 2°51.399 10.004023 3.206915 29.079902  
2002-04-16 07:54:08 51°13.338 2°51.369 10.004023 3.206915 29.079902  
2002-04-16 07:54:13 51°13.327 2°51.34 9.930163 3.207315 29.087876  
2002-04-16 07:54:17 51°13.32 2°51.317 10.008947 3.208417 29.096291  
2002-04-16 07:54:23 51°13.308 2°51.282 9.887516 3.208317 29.093308  
2002-04-16 07:54:28 51°13.298 2°51.253 9.887234 3.208617 29.098301  
2002-04-16 07:54:33 51°13.288 2°51.224 10.536028 3.208217 29.09626  
2002-04-16 07:54:38 51°13.279 2°51.195 10.536028 3.208217 29.09626  
2002-04-16 07:54:43 51°13.269 2°51.165 10.074989 3.207716 29.091236  
2002-04-16 07:54:48 51°13.259 2°51.136 10.458668 3.205713 29.072458  
2002-04-16 07:54:52 51°13.251 2°51.113 10.227862 3.204912 29.065079  
2002-04-16 07:54:58 51°13.239 2°51.078 10.761813 3.204912 29.065738  
2002-04-16 07:55:03 51°13.23 2°51.048 10.302274 3.20331 29.051637  
2002-04-16 07:55:07 51°13.222 2°51.025 10.302274 3.20331 29.051637  
2002-04-16 07:55:13 51°13.21 2°50.99 10.457737 3.202609 29.045262  
2002-04-16 07:55:18 51°13.199 2°50.961 10.433654 3.202308 29.043565  
2002-04-16 07:55:22 51°13.191 2°50.938 10.458901 3.202809 29.051882  
2002-04-16 07:55:28 51°13.179 2°50.903 9.925702 3.201107 29.03414  
2002-04-16 07:55:33 51°13.169 2°50.874 10.268325 3.201908 29.042838  
2002-04-16 07:55:38 51°13.159 2°50.845 10.268325 3.201908 29.042838  
2002-04-16 07:55:43 51°13.149 2°50.816 10.233797 3.200506 29.029428  
2002-04-16 07:55:48 51°13.14 2°50.786 10.502898 3.200005 29.024403  
2002-04-16 07:55:53 51°13.13 2°50.757 10.537703 3.200606 29.028458  
2002-04-16 07:55:58 51°13.12 2°50.728 10.770435 3.201007 29.033794  
2002-04-16 07:56:03 51°13.11 2°50.699 10.387931 3.200606 29.029774  
2002-04-16 07:56:08 51°13.1 2°50.67 10.387931 3.200606 29.029774  
2002-04-16 07:56:13 51°13.091 2°50.641 10.08745 3.201908 29.042838  
2002-04-16 07:56:18 51°13.08 2°50.612 10.318611 3.200906 29.032789  
2002-04-16 07:56:23 51°13.07 2°50.583 10.363123 3.200706 29.031437  
2002-04-16 07:56:28 51°13.061 2°50.554 10.293543 3.199204 29.014391  
2002-04-16 07:56:33 51°13.051 2°50.525 10.525142 3.197702 28.998005  
2002-04-16 07:56:38 51°13.041 2°50.496 10.525142 3.197702 28.998005  
2002-04-16 07:56:43 51°13.031 2°50.467 9.957671 3.198203 29.003028  
2002-04-16 07:56:47 51°13.023 2°50.444 10.349175 3.198303 29.002718  
2002-04-16 07:56:53 51°13.012 2°50.409 10.082953 3.199104 29.010755  
2002-04-16 07:56:58 51°13.002 2°50.38 10.430206 3.201507 29.031577  
2002-04-16 07:57:03 51°12.992 2°50.351 10.361397 3.204812 29.062097  
2002-04-16 07:57:07 51°12.985 2°50.328 10.361397 3.204812 29.062097  
2002-04-16 07:57:13 51°12.973 2°50.294 10.630997 3.209418 29.104361  
2002-04-16 07:57:18 51°12.963 2°50.264 10.552354 3.214125 29.148949  
2002-04-16 07:57:23 51°12.953 2°50.236 10.055591 3.21783 29.182166  
2002-04-16 07:57:28 51°12.944 2°50.207 10.289247 3.220834 29.209008  
2002-04-16 07:57:33 51°12.934 2°50.178 10.251507 3.22464 29.241238  
2002-04-16 07:57:38 51°12.924 2°50.149 10.251507 3.22464 29.241238  
2002-04-16 07:57:43 51°12.914 2°50.12 10.404294 3.227444 29.266727  
2002-04-16 07:57:48 51°12.905 2°50.091 10.368486 3.229347 29.282507  
2002-04-16 07:57:53 51°12.895 2°50.062 10.291162 3.23175 29.303973  
2002-04-16 07:57:58 51°12.885 2°50.034 10.860436 3.233352 29.318062  
2002-04-16 07:58:03 51°12.876 2°50.005 10.479623 3.234955 29.333478  
2002-04-16 07:58:08 51°12.866 2°49.976 10.479623 3.234955 29.333478  
2002-04-16 07:58:12 51°12.858 2°49.953 10.247676 3.235756 29.340854  
2002-04-16 07:58:18 51°12.846 2°49.919 10.552494 3.236657 29.349236  
2002-04-16 07:58:23 51°12.837 2°49.89 10.133055 3.237558 29.356288  
2002-04-16 07:58:28 51°12.827 2°49.862 10.133335 3.238059 29.361313  
2002-04-16 07:58:33 51°12.817 2°49.832 10.250993 3.23876 29.367684  
2002-04-16 07:58:38 51°12.807 2°49.803 10.250993 3.23876 29.367684  
2002-04-16 07:58:43 51°12.798 2°49.774 10.593221 3.239261 29.373374  
2002-04-16 07:58:48 51°12.788 2°49.746 10.673579 3.239862 29.38007  
2002-04-16 07:58:53 51°12.777 2°49.717 9.985495 3.240663 29.389443  
2002-04-16 07:58:58 51°12.768 2°49.688 10.371238 3.240963 29.39379  
2002-04-16 07:59:03 51°12.758 2°49.659 10.334105 3.241464 29.398817  
2002-04-16 07:59:08 51°12.748 2°49.63 10.334105 3.241464 29.398817  
2002-04-16 07:59:13 51°12.739 2°49.6 10.257114 3.241865 29.402838  
2002-04-16 07:59:18 51°12.729 2°49.571 10.450052 3.240863 29.392785  
2002-04-16 07:59:23 51°12.721 2°49.541 10.447024 3.242065 29.403517  
2002-04-16 07:59:28 51°12.711 2°49.511 10.75305 3.242265 29.404862  
2002-04-16 07:59:33 51°12.702 2°49.481 10.372077 3.242966 29.410568  
2002-04-16 07:59:38 51°12.692 2°49.452 10.372077 3.242966 29.410568  
2002-04-16 07:59:42 51°12.686 2°49.428 10.256787 3.243066 29.411573  
2002-04-16 07:59:48 51°12.674 2°49.392 10.449726 3.243667 29.416273  
2002-04-16 07:59:53 51°12.665 2°49.363 10.29471 3.244168 29.420634  
2002-04-16 07:59:58 51°12.656 2°49.333 10.373476 3.243767 29.415947  
2002-04-16 08:00:02 51°12.649 2°49.309 10.483301 3.243267 29.411586  
2002-04-16 08:00:08 51°12.638 2°49.273 10.483301 3.243267 29.411586  
2002-04-16 08:00:13 51°12.628 2°49.244 10.212203 3.243968 29.417291  
2002-04-16 08:00:18 51°12.62 2°49.213 10.405227 3.244068 29.419628  
2002-04-16 08:00:23 51°12.611 2°49.184 10.326499 3.244268 29.421639  
2002-04-16 08:00:28 51°12.601 2°49.154 10.512439 3.242666 29.405555  
2002-04-16 08:00:33 51°12.592 2°49.124 10.505412 3.244569 29.422657  
2002-04-16 08:00:38 51°12.583 2°49.095 10.505412 3.244569 29.422657  
2002-04-16 08:00:43 51°12.574 2°49.065 10.352254 3.244569 29.423989  
2002-04-16 08:00:48 51°12.564 2°49.035 10.044297 3.244268 29.422971  
2002-04-16 08:00:53 51°12.555 2°49.006 10.348102 3.244469 29.425648  
2002-04-16 08:00:58 51°12.545 2°48.977 10.270473 3.24547 29.437035  
2002-04-16 08:01:03 51°12.537 2°48.946 10.27491 3.245069 29.434346  
2002-04-16 08:01:08 51°12.527 2°48.917 10.27491 3.245069 29.434346  
2002-04-16 08:01:12 51°12.519 2°48.893 10.387558 3.246772 29.454775  
2002-04-16 08:01:17 51°12.51 2°48.863 10.424801 3.248274 29.471196  
2002-04-16 08:01:23 51°12.499 2°48.828 10.385554 3.251179 29.50304  
2002-04-16 08:01:28 51°12.49 2°48.798 10.42275 3.253682 29.530199  
2002-04-16 08:01:32 51°12.482 2°48.774 10.347496 3.256186 29.558035  
2002-04-16 08:01:38 51°12.472 2°48.738 10.347496 3.256186 29.558035  
2002-04-16 08:01:43 51°12.462 2°48.709 10.043922 3.258189 29.578835  
2002-04-16 08:01:48 51°12.453 2°48.679 10.158606 3.259491 29.591921  
2002-04-16 08:01:52 51°12.445 2°48.656 10.273509 3.260493 29.601987  
2002-04-16 08:01:58 51°12.435 2°48.62 10.584576 3.261194 29.610376  
2002-04-16 08:02:03 51°12.425 2°48.59 10.219963 3.260593 29.603665  
2002-04-16 08:02:08 51°12.416 2°48.56 10.219963 3.260593 29.603665  
2002-04-16 08:02:13 51°12.407 2°48.531 10.393806 3.260493 29.603999  
2002-04-16 08:02:18 51°12.398 2°48.501 10.197989 3.259691 29.595275  
2002-04-16 08:02:23 51°12.387 2°48.472 10.579788 3.25859 29.582861  
2002-04-16 08:02:28 51°12.38 2°48.441 10.389796 3.256286 29.559711  
2002-04-16 08:02:33 51°12.369 2°48.413 10.198176 3.254884 29.545621  
2002-04-16 08:02:38 51°12.361 2°48.382 10.198176 3.254884 29.545621  
2002-04-16 08:02:42 51°12.353 2°48.359 10.31287 3.254283 29.536906  
2002-04-16 08:02:48 51°12.343 2°48.323 10.194202 3.252581 29.520468  
2002-04-16 08:02:53 51°12.332 2°48.294 10.500757 3.251379 29.507725  
2002-04-16 08:02:58 51°12.324 2°48.263 10.49736 3.250978 29.506374  
2002-04-16 08:03:03 51°12.315 2°48.233 10.270053 3.251179 29.505713  
2002-04-16 08:03:08 51°12.306 2°48.204 10.270053 3.251179 29.505713  
2002-04-16 08:03:13 51°12.297 2°48.175 10.388864 3.250678 29.501351  
2002-04-16 08:03:18 51°12.288 2°48.145 10.385647 3.250377 29.496996  
2002-04-16 08:03:22 51°12.28 2°48.121 10.346889 3.250678 29.503356  
2002-04-16 08:03:28 51°12.269 2°48.086 10.463745 3.250978 29.506374  
2002-04-16 08:03:33 51°12.261 2°48.056 10.575557 3.250177 29.50033  
2002-04-16 08:03:38 51°12.251 2°48.027 10.575557 3.250177 29.50033  
2002-04-16 08:03:42 51°12.244 2°48.003 10.234732 3.250678 29.506029  
2002-04-16 08:03:48 51°12.232 2°47.968 10.26996 3.250578 29.505692  
2002-04-16 08:03:53 51°12.223 2°47.938 10.117935 3.250578 29.505023  
2002-04-16 08:03:58 51°12.214 2°47.909 10.114002 3.250778 29.507036  
2002-04-16 08:04:02 51°12.206 2°47.886 10.190928 3.250778 29.508373  
2002-04-16 08:04:08 51°12.195 2°47.85 10.190928 3.250778 29.508373  
2002-04-16 08:04:13 51°12.186 2°47.82 10.266737 3.251079 29.510723  
2002-04-16 08:04:18 51°12.177 2°47.79 10.230012 3.251379 29.514411  
2002-04-16 08:04:23 51°12.168 2°47.761 10.268605 3.251679 29.516093  
2002-04-16 08:04:28 51°12.159 2°47.731 10.498989 3.250878 29.510048  
2002-04-16 08:04:33 51°12.15 2°47.701 10.234592 3.25238 29.522468  
2002-04-16 08:04:38 51°12.141 2°47.672 10.234592 3.25238 29.522468  
2002-04-16 08:04:42 51°12.133 2°47.648 10.231227 3.252681 29.527495  
2002-04-16 08:04:48 51°12.122 2°47.613 10.231554 3.253282 29.535541  
2002-04-16 08:04:53 51°12.113 2°47.583 10.248096 3.253182 29.534534  
2002-04-16 08:04:58 51°12.104 2°47.553 10.689035 3.253783 29.541243  
2002-04-16 08:05:03 51°12.095 2°47.523 9.922697 3.255285 29.553664  
2002-04-16 08:05:08 51°12.086 2°47.494 9.922697 3.255285 29.553664  
2002-04-16 08:05:12 51°12.079 2°47.47 10.230479 3.255085 29.55232  
2002-04-16 08:05:18 51°12.068 2°47.435 10.232723 3.256587 29.566749  
2002-04-16 08:05:23 51°12.059 2°47.405 10.041859 3.257088 29.572453  
2002-04-16 08:05:27 51°12.051 2°47.381 10.231087 3.257789 29.582181  
2002-04-16 08:05:33 51°12.041 2°47.345 10.040641 3.25869 29.590572  
2002-04-16 08:05:38 51°12.031 2°47.315 10.040641 3.25869 29.590572  
2002-04-16 08:05:43 51°12.022 2°47.285 10.421166 3.259391 29.596278  
2002-04-16 08:05:48 51°12.013 2°47.256 10.192565 3.260192 29.605004  
2002-04-16 08:05:53 51°12.003 2°47.226 10.383968 3.256186 29.564733  
2002-04-16 08:05:58 51°11.994 2°47.195 10.194155 3.261094 29.613395  
2002-04-16 08:06:03 51°11.985 2°47.165 9.885825 3.261895 29.622121  
2002-04-16 08:06:08 51°11.976 2°47.135 9.885825 3.261895 29.622121  
2002-04-16 08:06:13 51°11.967 2°47.105 10.041719 3.262896 29.631519  
2002-04-16 08:06:18 51°11.958 2°47.075 10.116998 3.263597 29.63924  
2002-04-16 08:06:23 51°11.949 2°47.045 10.155097 3.264098 29.644275  
2002-04-16 08:06:28 51°11.94 2°47.015 10.195558 3.263998 29.642596  
2002-04-16 08:06:33 51°11.931 2°46.985 10.005946 3.264799 29.651997  
2002-04-16 08:06:38 51°11.921 2°46.956 10.005946 3.264799 29.651997  
2002-04-16 08:06:43 51°11.913 2°46.925 10.040078 3.264499 29.649647  
2002-04-16 08:06:48 51°11.903 2°46.896 10.194155 3.264899 29.65166  
2002-04-16 08:06:53 51°11.894 2°46.866 10.345723 3.264899 29.652332  
2002-04-16 08:06:58 51°11.885 2°46.836 10.039938 3.265801 29.661396  
2002-04-16 08:07:03 51°11.876 2°46.806 10.194435 3.264699 29.650318  
2002-04-16 08:07:08 51°11.866 2°46.777 10.194435 3.264699 29.650318  
2002-04-16 08:07:13 51°11.857 2°46.747 9.771036 3.264599 29.648639  
2002-04-16 08:07:18 51°11.848 2°46.717 10.463558 3.264298 29.644946  
2002-04-16 08:07:23 51°11.84 2°46.686 10.193547 3.263998 29.641925  
2002-04-16 08:07:28 51°11.83 2°46.657 10.309089 3.263497 29.637561  
2002-04-16 08:07:33 51°11.821 2°46.627 10.156828 3.263798 29.639911  
2002-04-16 08:07:38 51°11.812 2°46.598 10.156828 3.263798 29.639911  
2002-04-16 08:07:43 51°11.803 2°46.567 10.274537 3.262396 29.627156  
2002-04-16 08:07:48 51°11.793 2°46.538 10.118918 3.261795 29.622457  
2002-04-16 08:07:53 51°11.784 2°46.508 10.236648 3.261194 29.615073  
2002-04-16 08:07:58 51°11.775 2°46.478 10.388771 3.260693 29.610038  
2002-04-16 08:08:03 51°11.766 2°46.448 10.61929 3.260192 29.604333  
2002-04-16 08:08:08 51°11.757 2°46.418 10.61929 3.260192 29.604333  
2002-04-16 08:08:13 51°11.747 2°46.389 10.006087 3.259191 29.598289  
2002-04-16 08:08:18 51°11.739 2°46.358 10.392733 3.259091 29.592587  
2002-04-16 08:08:23 51°11.729 2°46.329 10.426478 3.259691 29.598628  
2002-04-16 08:08:28 51°11.721 2°46.299 10.197943 3.25889 29.590574  
2002-04-16 08:08:33 51°11.712 2°46.269 10.087403 3.25899 29.59091  
2002-04-16 08:08:38 51°11.702 2°46.239 10.087403 3.25899 29.59091  
2002-04-16 08:08:42 51°11.695 2°46.214 10.312217 3.259091 29.591246  
2002-04-16 08:08:48 51°11.685 2°46.178 10.197148 3.259491 29.594603  
2002-04-16 08:08:53 51°11.675 2°46.149 10.006415 3.260392 29.602993  
2002-04-16 08:08:58 51°11.667 2°46.119 10.19986 3.259792 29.597623  
2002-04-16 08:09:02 51°11.659 2°46.095 10.007306 3.259792 29.596282  
2002-04-16 08:09:08 51°11.648 2°46.06 10.007306 3.259792 29.596282  
2002-04-16 08:09:13 51°11.639 2°46.029 10.581043 3.260192 29.600308  
2002-04-16 08:09:18 51°11.63 2°45.999 9.931149 3.260493 29.603999  
2002-04-16 08:09:23 51°11.621 2°45.97 10.199299 3.260593 29.603665  
2002-04-16 08:09:28 51°11.612 2°45.94 10.391894 3.260693 29.606684  
2002-04-16 08:09:33 51°11.603 2°45.91 10.011667 3.261394 29.612389  
2002-04-16 08:09:38 51°11.594 2°45.88 10.011667 3.261394 29.612389  
2002-04-16 08:09:43 51°11.585 2°45.85 10.656912 3.260893 29.608697  
2002-04-16 08:09:48 51°11.576 2°45.82 10.043922 3.261194 29.612389  
2002-04-16 08:09:53 51°11.566 2°45.791 10.541936 3.260993 29.609704  
2002-04-16 08:09:58 51°11.558 2°45.761 10.160056 3.261094 29.610711  
2002-04-16 08:10:03 51°11.549 2°45.731 10.465421 3.261594 29.615745  
2002-04-16 08:10:08 51°11.54 2°45.701 10.465421 3.261594 29.615745  
2002-04-16 08:10:13 51°11.53 2°45.672 10.199018 3.261294 29.611383  
2002-04-16 08:10:18 51°11.521 2°45.642 10.198737 3.261494 29.613396  
2002-04-16 08:10:23 51°11.511 2°45.613 10.391288 3.261895 29.618094  
2002-04-16 08:10:27 51°11.503 2°45.589 10.506249 3.261895 29.618765  
2002-04-16 08:10:32 51°11.495 2°45.559 10.468541 3.262195 29.622457  
2002-04-16 08:10:38 51°11.484 2°45.523 10.468541 3.262195 29.622457  
2002-04-16 08:10:42 51°11.477 2°45.5 10.12388 3.262395 29.624471  
2002-04-16 08:10:48 51°11.466 2°45.464 10.317538 3.262596 29.627156  
2002-04-16 08:10:53 51°11.456 2°45.434 10.239452 3.263197 29.633197  
2002-04-16 08:10:58 51°11.448 2°45.403 10.240387 3.263697 29.637561  
2002-04-16 08:11:03 51°11.439 2°45.374 10.204722 3.2651 29.649643  
2002-04-16 08:11:08 51°11.43 2°45.344 10.204722 3.2651 29.649643  
2002-04-16 08:11:13 51°11.421 2°45.313 10.355007 3.264899 29.648972  
2002-04-16 08:11:18 51°11.412 2°45.283 10.008009 3.2651 29.650986  
2002-04-16 08:11:23 51°11.404 2°45.253 10.316371 3.265901 29.65837  
2002-04-16 08:11:28 51°11.394 2°45.224 10.242583 3.266201 29.660719  
2002-04-16 08:11:32 51°11.387 2°45.199 10.163097 3.266702 29.665754  
2002-04-16 08:11:38 51°11.376 2°45.163 10.163097 3.266702 29.665754  
2002-04-16 08:11:43 51°11.367 2°45.133 10.433048 3.267002 29.668103  
2002-04-16 08:11:48 51°11.358 2°45.104 10.3551 3.267103 29.668438  
2002-04-16 08:11:53 51°11.349 2°45.074 10.434073 3.267203 29.670117  
2002-04-16 08:11:58 51°11.34 2°45.044 10.318611 3.267103 29.66911  
2002-04-16 08:12:03 51°11.331 2°45.013 9.858851 3.267203 29.67079  
2002-04-16 08:12:08 51°11.322 2°44.983 9.858851 3.267203 29.67079  
2002-04-16 08:12:13 51°11.313 2°44.953 10.124816 3.267503 29.673811  
2002-04-16 08:12:18 51°11.304 2°44.924 10.468122 3.267403 29.672131  
2002-04-16 08:12:22 51°11.297 2°44.899 10.202665 3.267203 29.669445  
2002-04-16 08:12:28 51°11.286 2°44.863 10.54668 3.268104 29.678508  
2002-04-16 08:12:33 51°11.277 2°44.833 10.241788 3.267904 29.675822  
2002-04-16 08:12:38 51°11.268 2°44.804 10.241788 3.267904 29.675822  
2002-04-16 08:12:43 51°11.259 2°44.773 10.320665 3.268004 29.676829  
2002-04-16 08:12:48 51°11.249 2°44.744 10.166138 3.268204 29.680188  
2002-04-16 08:12:53 51°11.24 2°44.714 10.851409 3.268505 29.681864  
2002-04-16 08:12:58 51°11.231 2°44.684 10.545936 3.268805 29.685558  
2002-04-16 08:13:03 51°11.222 2°44.654 10.241602 3.268905 29.687237  
2002-04-16 08:13:08 51°11.213 2°44.624 10.241602 3.268905 29.687237  
2002-04-16 08:13:13 51°11.204 2°44.594 10.126829 3.269506 29.69328  
2002-04-16 08:13:18 51°11.194 2°44.564 10.43356 3.268605 29.683544  
2002-04-16 08:13:22 51°11.187 2°44.54 10.129263 3.268404 29.680185  
2002-04-16 08:13:28 51°11.177 2°44.503 10.320665 3.267904 29.677167  
2002-04-16 08:13:33 51°11.167 2°44.474 10.162863 3.267203 29.669445  
2002-04-16 08:13:38 51°11.158 2°44.443 10.162863 3.267203 29.669445  
2002-04-16 08:13:43 51°11.15 2°44.413 9.817475 3.267002 29.667431  
2002-04-16 08:13:48 51°11.141 2°44.383 10.239732 3.266201 29.660047  
2002-04-16 08:13:53 51°11.132 2°44.353 10.354307 3.2657 29.653669  
2002-04-16 08:13:58 51°11.122 2°44.323 10.242536 3.2654 29.65132  
2002-04-16 08:14:03 51°11.114 2°44.293 10.08937 3.2652 29.647963  
2002-04-16 08:14:08 51°11.105 2°44.263 10.08937 3.2652 29.647963  
2002-04-16 08:14:13 51°11.096 2°44.233 10.163986 3.264999 29.645949  
2002-04-16 08:14:18 51°11.087 2°44.203 10.315531 3.264699 29.644943  
2002-04-16 08:14:23 51°11.078 2°44.173 10.699291 3.264699 29.644943  
2002-04-16 08:14:28 51°11.07 2°44.143 10.315811 3.264799 29.645279  
2002-04-16 08:14:33 51°11.06 2°44.114 10.277059 3.2653 29.650985  
2002-04-16 08:14:38 51°11.051 2°44.084 10.277059 3.2653 29.650985  
2002-04-16 08:14:42 51°11.043 2°44.06 10.24305 3.2657 29.653669  
2002-04-16 08:14:48 51°11.033 2°44.024 10.279861 3.266602 29.664075  
2002-04-16 08:14:53 51°11.023 2°43.994 10.089932 3.267503 29.673138  
2002-04-16 08:14:58 51°11.015 2°43.963 10.47059 3.268304 29.681867  
2002-04-16 08:15:03 51°11.005 2°43.934 10.547889 3.270307 29.702683  
2002-04-16 08:15:07 51°10.998 2°43.91 10.547889 3.270307 29.702683  
2002-04-16 08:15:13 51°10.987 2°43.874 10.434865 3.270808 29.708392  
2002-04-16 08:15:18 51°10.979 2°43.843 10.16829 3.27181 29.717118  
2002-04-16 08:15:23 51°10.969 2°43.813 10.092883 3.272611 29.72585  
2002-04-16 08:15:28 51°10.961 2°43.783 10.244872 3.273412 29.733235  
2002-04-16 08:15:33 51°10.951 2°43.754 10.249311 3.273913 29.737598  
2002-04-16 08:15:38 51°10.943 2°43.723 10.249311 3.273913 29.737598  
2002-04-16 08:15:43 51°10.934 2°43.693 10.130761 3.274514 29.742968  
2002-04-16 08:15:48 51°10.925 2°43.663 10.400892 3.275015 29.748679  
2002-04-16 08:15:53 51°10.916 2°43.633 10.208556 3.275415 29.752034  
2002-04-16 08:15:58 51°10.907 2°43.604 10.364009 3.276016 29.75673  
2002-04-16 08:16:03 51°10.899 2°43.573 9.938379 3.276316 29.757056  
2002-04-16 08:16:08 51°10.889 2°43.544 9.938379 3.276316 29.757056  
2002-04-16 08:16:13 51°10.88 2°43.514 10.170442 3.275014 29.745309  
2002-04-16 08:16:18 51°10.871 2°43.484 10.47818 3.275716 29.751686  
2002-04-16 08:16:23 51°10.862 2°43.455 10.440362 3.274714 29.74094  
2002-04-16 08:16:28 51°10.853 2°43.424 10.477714 3.274313 29.736911  
2002-04-16 08:16:33 51°10.844 2°43.395 10.101172 3.274113 29.73557  
2002-04-16 08:16:38 51°10.835 2°43.365 10.101172 3.274113 29.73557  
2002-04-16 08:16:43 51°10.826 2°43.335 10.556121 3.274113 29.734897  
2002-04-16 08:16:48 51°10.817 2°43.306 10.480741 3.273913 29.731535  
2002-04-16 08:16:53 51°10.808 2°43.277 10.09691 3.274213 29.735904  
2002-04-16 08:16:58 51°10.799 2°43.247 10.442738 3.274313 29.736238  
2002-04-16 08:17:03 51°10.791 2°43.217 10.175588 3.275716 29.748991  
2002-04-16 08:17:08 51°10.782 2°43.188 10.175588 3.275716 29.748991  
2002-04-16 08:17:13 51°10.772 2°43.159 10.329579 3.275515 29.74765  
2002-04-16 08:17:18 51°10.764 2°43.128 10.330605 3.275816 29.749998  
2002-04-16 08:17:23 51°10.755 2°43.1 10.141198 3.276817 29.759396  
2002-04-16 08:17:28 51°10.747 2°43.07 10.255525 3.277318 29.76578  
2002-04-16 08:17:33 51°10.738 2°43.04 10.449959 3.277819 29.769468  
2002-04-16 08:17:38 51°10.73 2°43.011 10.449959 3.277819 29.769468  
2002-04-16 08:17:43 51°10.72 2°42.982 10.142181 3.27882 29.777518  
2002-04-16 08:17:48 51°10.712 2°42.952 10.064448 3.27892 29.779874  
2002-04-16 08:17:53 51°10.704 2°42.923 10.106838 3.279421 29.785585  
2002-04-16 08:17:58 51°10.695 2°42.893 10.065619 3.279722 29.785908  
2002-04-16 08:18:03 51°10.686 2°42.864 10.261084 3.280022 29.789605  
2002-04-16 08:18:08 51°10.677 2°42.834 10.261084 3.280022 29.789605  
2002-04-16 08:18:13 51°10.668 2°42.806 10.185129 3.281424 29.801683  
2002-04-16 08:18:18 51°10.659 2°42.776 10.376554 3.281424 29.802358  
2002-04-16 08:18:23 51°10.65 2°42.747 10.564956 3.283227 29.818464  
2002-04-16 08:18:28 51°10.641 2°42.718 10.529748 3.282626 29.81377  
2002-04-16 08:18:33 51°10.632 2°42.689 10.146908 3.282125 29.808059  
2002-04-16 08:18:38 51°10.623 2°42.66 10.146908 3.282125 29.808059  
2002-04-16 08:18:43 51°10.615 2°42.631 10.149248 3.283327 29.820147  
2002-04-16 08:18:48 51°10.606 2°42.602 10.379026 3.284028 29.826523  
2002-04-16 08:18:53 51°10.597 2°42.573 10.187982 3.284228 29.827862  
2002-04-16 08:18:58 51°10.588 2°42.544 10.151634 3.28493 29.832887  
2002-04-16 08:19:03 51°10.58 2°42.515 10.418416 3.28513 29.836253  
2002-04-16 08:19:08 51°10.571 2°42.486 10.418416 3.28513 29.836253  
2002-04-16 08:19:12 51°10.564 2°42.462 10.113299 3.28533 29.837592  
2002-04-16 08:19:18 51°10.554 2°42.428 10.269399 3.286131 29.844299  
2002-04-16 08:19:23 51°10.545 2°42.399 10.307642 3.285931 29.841609  
2002-04-16 08:19:28 51°10.536 2°42.37 10.193266 3.28533 29.836241  
2002-04-16 08:19:33 51°10.527 2°42.341 10.499734 3.285631 29.838587  
2002-04-16 08:19:38 51°10.519 2°42.311 10.499734 3.285631 29.838587  
2002-04-16 08:19:43 51°10.511 2°42.282 9.924716 3.28543 29.835897  
2002-04-16 08:19:48 51°10.502 2°42.254 10.425267 3.28543 29.835221  
2002-04-16 08:19:53 51°10.493 2°42.224 10.426897 3.28533 29.832188  
2002-04-16 08:19:58 51°10.485 2°42.195 10.426804 3.28533 29.832188  
2002-04-16 08:20:03 51°10.476 2°42.167 10.120275 3.28503 29.829166  
2002-04-16 08:20:08 51°10.467 2°42.138 10.120275 3.28503 29.829166  
2002-04-16 08:20:13 51°10.459 2°42.109 10.61641 3.28543 29.832519  
2002-04-16 08:20:18 51°10.45 2°42.08 10.313617 3.28543 29.831844  
2002-04-16 08:20:22 51°10.444 2°42.056 10.389144 3.28553 29.832851  
2002-04-16 08:20:28 51°10.433 2°42.022 10.275284 3.285831 29.833846  
2002-04-16 08:20:33 51°10.425 2°41.993 10.315671 3.28563 29.831157  
2002-04-16 08:20:38 51°10.416 2°41.964 10.315671 3.28563 29.831157  
2002-04-16 08:20:43 51°10.407 2°41.935 10.42946 3.285931 29.833503  
2002-04-16 08:20:48 51°10.398 2°41.907 10.545378 3.286131 29.834841  
2002-04-16 08:20:53 51°10.389 2°41.878 10.42932 3.286332 29.837531  
2002-04-16 08:20:58 51°10.381 2°41.849 10.58425 3.286332 29.836855  
2002-04-16 08:21:03 51°10.372 2°41.82 9.972265 3.286732 29.840884  
2002-04-16 08:21:08 51°10.364 2°41.791 9.972265 3.286732 29.840884  
2002-04-16 08:21:13 51°10.355 2°41.763 10.125752 3.286832 29.841215  
2002-04-16 08:21:18 51°10.347 2°41.733 10.241648 3.287133 29.843561  
2002-04-16 08:21:23 51°10.337 2°41.705 10.508344 3.287433 29.845231  
2002-04-16 08:21:28 51°10.329 2°41.676 10.546401 3.287233 29.843892  
2002-04-16 08:21:33 51°10.32 2°41.648 10.0089 3.287433 29.844555  
2002-04-16 08:21:38 51°10.311 2°41.619 10.0089 3.287433 29.844555  
2002-04-16 08:21:43 51°10.302 2°41.59 10.010964 3.287433 29.844555  
2002-04-16 08:21:48 51°10.294 2°41.561 9.895926 3.287633 29.846569  
2002-04-16 08:21:53 51°10.285 2°41.533 10.04978 3.287433 29.84388  
2002-04-16 08:21:58 51°10.277 2°41.504 10.20519 3.287433 29.843204  
2002-04-16 08:22:02 51°10.269 2°41.481 9.975127 3.287734 29.846225  
2002-04-16 08:22:08 51°10.259 2°41.447 9.975127 3.287734 29.846225  
2002-04-16 08:22:13 51°10.25 2°41.418 9.936876 3.287533 29.844211  
2002-04-16 08:22:18 51°10.242 2°41.389 9.976535 3.287633 29.846569  
2002-04-16 08:22:23 51°10.233 2°41.36 10.39926 3.287734 29.846225  
2002-04-16 08:22:28 51°10.224 2°41.332 10.512067 3.287834 29.847908  
2002-04-16 08:22:33 51°10.216 2°41.303 10.358598 3.287834 29.845206  
2002-04-16 08:22:38 51°10.207 2°41.274 10.358598 3.287834 29.845206  
2002-04-16 08:22:43 51°10.199 2°41.246 10.283223 3.287834 29.845881  
2002-04-16 08:22:48 51°10.19 2°41.217 10.590944 3.288335 29.849565  
2002-04-16 08:22:53 51°10.182 2°41.188 10.244031 3.288234 29.849233  
2002-04-16 08:22:58 51°10.173 2°41.16 10.05367 3.288435 29.850572  
2002-04-16 08:23:03 51°10.165 2°41.131 10.318378 3.288935 29.854931  
2002-04-16 08:23:08 51°10.155 2°41.103 10.318378 3.288935 29.854931  
2002-04-16 08:23:13 51°10.147 2°41.074 10.47059 3.289136 29.856944  
2002-04-16 08:23:18 51°10.138 2°41.046 10.280935 3.289436 29.859965  
2002-04-16 08:23:23 51°10.13 2°41.017 10.16684 3.289737 29.862986  
2002-04-16 08:23:28 51°10.12 2°40.989 10.012886 3.289937 29.864324  
2002-04-16 08:23:33 51°10.112 2°40.959 10.280702 3.290338 29.869703  
2002-04-16 08:23:38 51°10.104 2°40.931 10.280702 3.290338 29.869703  
2002-04-16 08:23:43 51°10.095 2°40.902 10.509088 3.290838 29.874062  
2002-04-16 08:23:48 51°10.088 2°40.873 10.433048 3.291039 29.877429  
2002-04-16 08:23:53 51°10.078 2°40.845 10.469566 3.29154 29.883816  
2002-04-16 08:23:58 51°10.071 2°40.815 10.128374 3.29174 29.884478  
2002-04-16 08:24:03 51°10.061 2°40.787 10.20332 3.292341 29.891197  
2002-04-16 08:24:08 51°10.053 2°40.758 10.20332 3.292341 29.891197  
2002-04-16 08:24:13 51°10.044 2°40.73 10.009979 3.292541 29.893211  
2002-04-16 08:24:18 51°10.036 2°40.701 10.087403 3.292842 29.896232  
2002-04-16 08:24:23 51°10.027 2°40.672 10.24062 3.293442 29.902275  
2002-04-16 08:24:28 51°10.018 2°40.644 10.353327 3.294043 29.908995  
2002-04-16 08:24:33 51°10.009 2°40.615 9.971467 3.294144 29.910679  
2002-04-16 08:24:38 51°10.001 2°40.586 9.971467 3.294144 29.910679  
2002-04-16 08:24:43 51°9.993 2°40.558 10.468634 3.294344 29.913371  
2002-04-16 08:24:48 51°9.984 2°40.529 10.277806 3.294945 29.919415  
2002-04-16 08:24:53 51°9.976 2°40.499 10.160618 3.294945 29.920092  
2002-04-16 08:24:58 51°9.968 2°40.47 10.315064 3.295446 29.924451  
2002-04-16 08:25:03 51°9.959 2°40.442 10.390309 3.295746 29.927473  
2002-04-16 08:25:08 51°9.951 2°40.413 10.390309 3.295746 29.927473  
2002-04-16 08:25:13 51°9.942 2°40.384 10.27463 3.296347 29.934195  
2002-04-16 08:25:18 51°9.934 2°40.356 10.390216 3.296447 29.935202  
2002-04-16 08:25:23 51°9.925 2°40.327 9.929177 3.296447 29.934525  
2002-04-16 08:25:28 51°9.917 2°40.298 10.389097 3.296748 29.938225  
2002-04-16 08:25:32 51°9.909 2°40.276 10.158933 3.297349 29.944269  
2002-04-16 08:25:38 51°9.9 2°40.241 10.158933 3.297349 29.944269  
2002-04-16 08:25:43 51°9.891 2°40.213 9.888315 3.297449 29.945954  
2002-04-16 08:25:48 51°9.882 2°40.184 10.197943 3.297849 29.949984  
2002-04-16 08:25:53 51°9.873 2°40.156 10.235106 3.29805 29.951999  
2002-04-16 08:25:58 51°9.864 2°40.128 10.043266 3.29815 29.954363  
2002-04-16 08:26:03 51°9.856 2°40.098 10.194997 3.299552 29.967112  
2002-04-16 08:26:08 51°9.847 2°40.07 10.194997 3.299552 29.967112  
2002-04-16 08:26:13 51°9.838 2°40.041 10.120369 3.299051 29.964788  
2002-04-16 08:26:18 51°9.83 2°40.012 10.465887 3.299151 29.964439  
2002-04-16 08:26:23 51°9.821 2°39.984 10.238938 3.299252 29.965446  
2002-04-16 08:26:28 51°9.813 2°39.955 10.043875 3.299752 29.971163  
2002-04-16 08:26:33 51°9.804 2°39.927 10.156781 3.299852 29.972849  
2002-04-16 08:26:38 51°9.796 2°39.898 10.156781 3.299852 29.972849  
2002-04-16 08:26:43 51°9.787 2°39.869 9.966165 3.299752 29.97252  
2002-04-16 08:26:48 51°9.779 2°39.84 10.196072 3.300153 29.975193  
2002-04-16 08:26:53 51°9.771 2°39.811 10.157998 3.299953 29.974535  
2002-04-16 08:26:58 51°9.762 2°39.783 10.351928 3.300253 29.976201  
2002-04-16 08:27:03 51°9.754 2°39.755 10.31203 3.299652 29.970834  
2002-04-16 08:27:08 51°9.745 2°39.726 10.31203 3.299652 29.970834  
2002-04-16 08:27:13 51°9.737 2°39.698 10.274397 3.300253 29.976201  
2002-04-16 08:27:18 51°9.727 2°39.67 10.350808 3.300754 29.979204  
2002-04-16 08:27:23 51°9.72 2°39.641 10.197101 3.300153 29.975193  
2002-04-16 08:27:28 51°9.711 2°39.612 10.273696 3.299852 29.971492  
2002-04-16 08:27:33 51°9.703 2°39.583 10.156968 3.299752 29.97252  
2002-04-16 08:27:38 51°9.694 2°39.555 10.156968 3.299752 29.97252  
2002-04-16 08:27:43 51°9.685 2°39.526 10.615295 3.299552 29.969826  
2002-04-16 08:27:48 51°9.677 2°39.497 10.233283 3.299252 29.967481  
2002-04-16 08:27:53 51°9.668 2°39.469 10.231881 3.298651 29.960079  
2002-04-16 08:27:58 51°9.66 2°39.44 10.152851 3.29835 29.956378  
2002-04-16 08:28:03 51°9.651 2°39.411 10.190788 3.29825 29.956727  
2002-04-16 08:28:08 51°9.642 2°39.383 10.190788 3.29825 29.956727  
2002-04-16 08:28:13 51°9.634 2°39.354 10.456107 3.297549 29.948996  
2002-04-16 08:28:18 51°9.625 2°39.326 10.036188 3.29805 29.954711  
2002-04-16 08:28:22 51°9.618 2°39.303 10.187187 3.297048 29.943958  
2002-04-16 08:28:28 51°9.608 2°39.268 10.338118 3.296848 29.943299  
2002-04-16 08:28:33 51°9.6 2°39.24 10.375528 3.296147 29.936923  
2002-04-16 08:28:38 51°9.591 2°39.212 10.375528 3.296147 29.936923  
2002-04-16 08:28:43 51°9.582 2°39.183 10.604328 3.295546 29.932911  
2002-04-16 08:28:48 51°9.575 2°39.153 10.033 3.295145 29.929558  
2002-04-16 08:28:53 51°9.567 2°39.124 10.376554 3.294745 29.926883  
2002-04-16 08:28:58 51°9.56 2°39.095 10.067306 3.294144 29.920837  
2002-04-16 08:29:03 51°9.553 2°39.065 10.183633 3.294144 29.921515  
2002-04-16 08:29:08 51°9.545 2°39.036 10.183633 3.294144 29.921515  
2002-04-16 08:29:13 51°9.537 2°39.006 9.992907 3.293543 29.916824  
2002-04-16 08:29:18 51°9.53 2°38.977 10.335085 3.293242 29.915156  
2002-04-16 08:29:23 51°9.522 2°38.948 10.490052 3.292942 29.910778  
2002-04-16 08:29:28 51°9.515 2°38.918 10.373103 3.292742 29.90944  
2002-04-16 08:29:33 51°9.508 2°38.888 10.10342 3.292441 29.907772  
2002-04-16 08:29:38 51°9.5 2°38.859 10.10342 3.292441 29.907772  
2002-04-16 08:29:43 51°9.494 2°38.829 10.181154 3.286532 29.848329  
2002-04-16 08:29:47 51°9.488 2°38.805 10.48642 3.291139 29.894673  
2002-04-16 08:29:53 51°9.479 2°38.769 10.21814 3.290638 29.889635  
2002-04-16 08:29:58 51°9.473 2°38.739 10.066088 3.289336 29.87789  
2002-04-16 08:30:03 51°9.466 2°38.71 10.298819 3.288635 29.870161  
2002-04-16 08:30:08 51°9.458 2°38.68 10.298819 3.288635 29.870161  
2002-04-16 08:30:13 51°9.452 2°38.65 10.185924 3.287834 29.863454  
2002-04-16 08:30:17 51°9.446 2°38.626 10.530957 3.287133 29.856401  
2002-04-16 08:30:23 51°9.437 2°38.59 10.186252 3.287534 29.861107  
2002-04-16 08:30:28 51°9.431 2°38.56 10.340404 3.28523 29.837936  
2002-04-16 08:30:33 51°9.423 2°38.531 10.382616 3.28543 29.839951  
2002-04-16 08:30:38 51°9.416 2°38.501 10.382616 3.28543 29.839951  
2002-04-16 08:30:42 51°9.41 2°38.477 10.232208 3.28533 29.838268  
2002-04-16 08:30:48 51°9.402 2°38.441 10.231507 3.284829 29.833231  
2002-04-16 08:30:53 51°9.394 2°38.411 10.347076 3.28523 29.835233  
2002-04-16 08:30:58 51°9.387 2°38.381 10.310163 3.284629 29.829865  
2002-04-16 08:31:03 51°9.38 2°38.352 10.388304 3.284629 29.828514  
2002-04-16 08:31:08 51°9.373 2°38.322 10.388304 3.284629 29.828514  
2002-04-16 08:31:13 51°9.366 2°38.292 10.236228 3.284529 29.826156  
2002-04-16 08:31:18 51°9.358 2°38.262 10.197288 3.284429 29.823798  
2002-04-16 08:31:22 51°9.353 2°38.238 10.042188 3.284228 29.820434  
2002-04-16 08:31:28 51°9.344 2°38.202 10.315017 3.284028 29.819095  
2002-04-16 08:31:33 51°9.337 2°38.172 10.391801 3.284128 29.818076  
2002-04-16 08:31:38 51°9.33 2°38.142 10.391801 3.284128 29.818076  
2002-04-16 08:31:43 51°9.323 2°38.112 10.315111 3.283427 29.811027  
2002-04-16 08:31:48 51°9.316 2°38.082 10.235153 3.283828 29.813031  
2002-04-16 08:31:53 51°9.309 2°38.052 10.313804 3.283728 29.811349  
2002-04-16 08:31:58 51°9.302 2°38.023 10.275424 3.283627 29.808992  
2002-04-16 08:32:02 51°9.296 2°37.998 10.045984 3.283427 29.806979  
2002-04-16 08:32:08 51°9.288 2°37.963 10.045984 3.283427 29.806979  
2002-04-16 08:32:13 51°9.28 2°37.934 10.239312 3.283527 29.805961  
2002-04-16 08:32:18 51°9.273 2°37.903 10.1616 3.283127 29.803283  
2002-04-16 08:32:23 51°9.266 2°37.874 10.240153 3.283227 29.803616  
2002-04-16 08:32:28 51°9.259 2°37.844 10.316044 3.282626 29.797575  
2002-04-16 08:32:32 51°9.254 2°37.82 10.467936 3.282325 29.79388  
2002-04-16 08:32:38 51°9.245 2°37.784 10.467936 3.282325 29.79388  
2002-04-16 08:32:43 51°9.238 2°37.755 10.392454 3.281925 29.790527  
2002-04-16 08:32:48 51°9.231 2°37.724 10.213138 3.281324 29.783813  
2002-04-16 08:32:53 51°9.224 2°37.695 10.279861 3.281023 29.781467  
2002-04-16 08:32:58 51°9.217 2°37.665 10.546308 3.280422 29.773405  
2002-04-16 08:33:02 51°9.212 2°37.641 10.510624 3.280122 29.771732  
2002-04-16 08:33:08 51°9.202 2°37.605 10.510624 3.280122 29.771732  
2002-04-16 08:33:13 51°9.196 2°37.575 10.092508 3.279922 29.768372  
2002-04-16 08:33:18 51°9.189 2°37.546 10.205938 3.279621 29.765352  
2002-04-16 08:33:23 51°9.182 2°37.516 10.284811 3.27902 29.758639  
2002-04-16 08:33:28 51°9.175 2°37.486 10.171799 3.278519 29.753606  
2002-04-16 08:33:33 51°9.168 2°37.457 9.863645 3.277919 29.746894  
2002-04-16 08:33:38 51°9.16 2°37.427 9.863645 3.277919 29.746894  
2002-04-16 08:33:43 51°9.153 2°37.397 10.246882 3.277318 29.741528  
2002-04-16 08:33:48 51°9.147 2°37.367 10.250479 3.276917 29.73683  
2002-04-16 08:33:53 51°9.139 2°37.338 10.176523 3.276917 29.737503  
2002-04-16 08:33:58 51°9.132 2°37.308 10.216176 3.275815 29.723069  
2002-04-16 08:34:03 51°9.125 2°37.278 10.560446 3.275214 29.717031  
2002-04-16 08:34:08 51°9.118 2°37.248 10.560446 3.275214 29.717031  
2002-04-16 08:34:13 51°9.11 2°37.219 11.05461 3.274814 29.712334  
2002-04-16 08:34:18 51°9.104 2°37.188 10.600518 3.274413 29.706965  
2002-04-16 08:34:23 51°9.097 2°37.159 10.600053 3.273612 29.697572  
2002-04-16 08:34:28 51°9.091 2°37.128 10.259076 3.273111 29.692542  
2002-04-16 08:34:33 51°9.084 2°37.099 10.03014 3.272711 29.687846  
2002-04-16 08:34:38 51°9.077 2°37.069 10.03014 3.272711 29.687846  
2002-04-16 08:34:43 51°9.07 2°37.039 10.145551 3.27211 29.680467  
2002-04-16 08:34:48 51°9.063 2°37.009 10.223235 3.271108 29.668395  
2002-04-16 08:34:53 51°9.056 2°36.979 10.301994 3.270707 29.664372  
2002-04-16 08:34:58 51°9.05 2°36.949 10.611299 3.270407 29.662025  
2002-04-16 08:35:03 51°9.042 2°36.92 10.26683 3.269606 29.651296  
2002-04-16 08:35:08 51°9.036 2°36.89 10.26683 3.269606 29.651296  
2002-04-16 08:35:13 51°9.029 2°36.86 10.383782 3.269205 29.645933  
2002-04-16 08:35:18 51°9.022 2°36.83 10.234171 3.268204 29.635877  
2002-04-16 08:35:23 51°9.015 2°36.8 10.61706 3.267603 29.629174  
2002-04-16 08:35:28 51°9.008 2°36.77 10.236134 3.267102 29.622136  
2002-04-16 08:35:33 51°9.002 2°36.74 10.468215 3.266801 29.61778  
2002-04-16 08:35:38 51°8.995 2°36.71 10.468215 3.266801 29.61778  
2002-04-16 08:35:43 51°8.988 2°36.681 10.167308 3.266801 29.617111  
2002-04-16 08:35:48 51°8.981 2°36.651 10.428295 3.266301 29.610745  
2002-04-16 08:35:53 51°8.974 2°36.621 10.514998 3.266301 29.609406  
2002-04-16 08:35:58 51°8.967 2°36.591 10.478878 3.266301 29.608067  
2002-04-16 08:36:03 51°8.96 2°36.562 10.330372 3.266301 29.605389  
2002-04-16 08:36:08 51°8.953 2°36.532 10.330372 3.266301 29.605389  
2002-04-16 08:36:13 51°8.946 2°36.502 10.294383 3.266801 29.609745  
2002-04-16 08:36:18 51°8.94 2°36.472 10.103747 3.267002 29.610416  
2002-04-16 08:36:23 51°8.932 2°36.442 10.257207 3.267703 29.614104  
2002-04-16 08:36:28 51°8.926 2°36.412 10.221131 3.267903 29.614106  
2002-04-16 08:36:33 51°8.919 2°36.383 10.223235 3.268304 29.617456  
2002-04-16 08:36:38 51°8.913 2°36.353 10.223235 3.268304 29.617456  
2002-04-16 08:36:43 51°8.907 2°36.322 10.337465 3.268804 29.619803  
2002-04-16 08:36:48 51°8.901 2°36.292 10.644141 3.269906 29.628847  
2002-04-16 08:36:53 51°8.895 2°36.261 10.071803 3.269205 29.619137  
2002-04-16 08:36:58 51°8.889 2°36.231 9.961613 3.269405 29.620477  
2002-04-16 08:37:02 51°8.884 2°36.207 10.342037 3.269706 29.622152  
2002-04-16 08:37:08 51°8.878 2°36.17 10.342037 3.269706 29.622152  
2002-04-16 08:37:13 51°8.871 2°36.14 10.496615 3.270306 29.624833  
2002-04-16 08:37:18 51°8.865 2°36.11 10.573093 3.270206 29.624498  
2002-04-16 08:37:23 51°8.858 2°36.079 10.075083 3.271208 29.633205  
2002-04-16 08:37:28 51°8.852 2°36.049 10.230059 3.271508 29.636219  
2002-04-16 08:37:33 51°8.846 2°36.019 10.45974 3.271708 29.636219  
2002-04-16 08:37:38 51°8.839 2°35.988 10.45974 3.271708 29.636219  
2002-04-16 08:37:43 51°8.833 2°35.957 10.382196 3.272209 29.640572  
2002-04-16 08:37:48 51°8.826 2°35.927 10.305868 3.273711 29.652961  
2002-04-16 08:37:53 51°8.821 2°35.896 10.497034 3.273411 29.649948  
2002-04-16 08:37:58 51°8.814 2°35.866 10.766448 3.274212 29.658654  
2002-04-16 08:38:03 51°8.808 2°35.835 10.154254 3.274513 29.660328  
2002-04-16 08:38:08 51°8.801 2°35.804 10.154254 3.274513 29.660328  
2002-04-16 08:38:13 51°8.794 2°35.774 10.192331 3.274813 29.664011  
2002-04-16 08:38:18 51°8.788 2°35.743 10.609672 3.275214 29.667359  
2002-04-16 08:38:23 51°8.781 2°35.712 10.26669 3.275614 29.670707  
2002-04-16 08:38:28 51°8.774 2°35.681 10.686668 3.275815 29.672716  
2002-04-16 08:38:33 51°8.767 2°35.65 10.34395 3.276215 29.676735  
2002-04-16 08:38:38 51°8.76 2°35.62 10.34395 3.276215 29.676735  
2002-04-16 08:38:43 51°8.754 2°35.588 10.305915 3.276215 29.675394  
2002-04-16 08:38:48 51°8.747 2°35.558 10.305448 3.277016 29.68276  
2002-04-16 08:38:53 51°8.739 2°35.527 10.458389 3.277217 29.684099  
2002-04-16 08:38:58 51°8.733 2°35.495 10.422843 3.277417 29.687449  
2002-04-16 08:39:03 51°8.726 2°35.464 10.346003 3.277918 29.691801  
2002-04-16 08:39:08 51°8.719 2°35.433 10.346003 3.277918 29.691801  
2002-04-16 08:39:13 51°8.712 2°35.402 10.039656 3.27902 29.704193  
2002-04-16 08:39:18 51°8.706 2°35.37 10.612971 3.278218 29.696156  
2002-04-16 08:39:23 51°8.698 2°35.339 10.421632 3.278419 29.697495  
2002-04-16 08:39:28 51°8.692 2°35.307 10.306942 3.27902 29.704864  
2002-04-16 08:39:33 51°8.684 2°35.276 10.614319 3.27952 29.709217  
2002-04-16 08:39:38 51°8.677 2°35.244 10.614319 3.27952 29.709217  
2002-04-16 08:39:43 51°8.67 2°35.212 10.461602 3.280822 29.721607  
2002-04-16 08:39:48 51°8.663 2°35.181 10.690892 3.280422 29.718259  
2002-04-16 08:39:53 51°8.656 2°35.149 10.269399 3.280922 29.721269  
2002-04-16 08:39:58 51°8.649 2°35.117 10.348056 3.281724 29.73065  
2002-04-16 08:40:02 51°8.644 2°35.092 10.423822 3.282325 29.736679  
2002-04-16 08:40:08 51°8.635 2°35.054 10.423822 3.282325 29.736679  
2002-04-16 08:40:13 51°8.628 2°35.022 10.131744 3.283026 29.742369  
2002-04-16 08:40:18 51°8.621 2°34.991 10.307596 3.283326 29.744712  
2002-04-16 08:40:23 51°8.614 2°34.959 10.272342 3.283727 29.748731  
2002-04-16 08:40:28 51°8.607 2°34.928 10.386346 3.283827 29.749736  
2002-04-16 08:40:33 51°8.6 2°34.896 10.233424 3.284027 29.752417  
2002-04-16 08:40:38 51°8.592 2°34.865 10.233424 3.284027 29.752417  
2002-04-16 08:40:43 51°8.586 2°34.833 10.502619 3.284027 29.751073  
2002-04-16 08:40:48 51°8.579 2°34.801 10.16029 3.283727 29.748059  
2002-04-16 08:40:53 51°8.572 2°34.77 10.276779 3.283827 29.748392  
2002-04-16 08:40:58 51°8.565 2°34.738 10.047437 3.282425 29.735669  
2002-04-16 08:41:03 51°8.558 2°34.707 10.389423 3.281924 29.728631  
2002-04-16 08:41:08 51°8.551 2°34.675 10.389423 3.281924 29.728631  
2002-04-16 08:41:13 51°8.543 2°34.644 10.353374 3.281523 29.723941  
2002-04-16 08:41:18 51°8.537 2°34.612 10.318051 3.282224 29.730974  
2002-04-16 08:41:23 51°8.529 2°34.581 10.277946 3.284227 29.749724  
2002-04-16 08:41:28 51°8.523 2°34.549 10.356173 3.286831 29.774503  
2002-04-16 08:41:33 51°8.516 2°34.518 10.583553 3.289335 29.798951  
2002-04-16 08:41:38 51°8.508 2°34.486 10.583553 3.289335 29.798951  
2002-04-16 08:41:43 51°8.502 2°34.454 10.393153 3.293241 29.838818  
2002-04-16 08:41:48 51°8.494 2°34.424 10.125378 3.296346 29.867954  
2002-04-16 08:41:53 51°8.488 2°34.392 10.50732 3.299852 29.902461  
2002-04-16 08:41:58 51°8.481 2°34.361 10.735661 3.302756 29.932968  
2002-04-16 08:42:03 51°8.474 2°34.329 10.316744 3.30496 29.953061  
2002-04-16 08:42:08 51°8.466 2°34.298 10.316744 3.30496 29.953061  
2002-04-16 08:42:13 51°8.459 2°34.267 10.46747 3.307163 29.975183  
2002-04-16 08:42:18 51°8.451 2°34.236 10.620452 3.309366 29.995276  
2002-04-16 08:42:23 51°8.443 2°34.206 10.275564 3.310669 30.009704  
2002-04-16 08:42:28 51°8.434 2°34.176 10.390729 3.313072 30.0352  
2002-04-16 08:42:33 51°8.424 2°34.146 10.69428 3.313974 30.042897  
2002-04-16 08:42:38 51°8.414 2°34.116 10.69428 3.313974 30.042897  
2002-04-16 08:42:43 51°8.403 2°34.089 10.390169 3.314975 30.054313  
2002-04-16 08:42:48 51°8.392 2°34.061 10.351834 3.316878 30.072749  
2002-04-16 08:42:53 51°8.38 2°34.033 10.275051 3.319482 30.097549  
2002-04-16 08:42:58 51°8.368 2°34.006 10.655426 3.319583 30.100594  
2002-04-16 08:43:03 51°8.355 2°33.98 10.350715 3.321185 30.116694  
2002-04-16 08:43:08 51°8.342 2°33.953 10.350715 3.321185 30.116694  
2002-04-16 08:43:13 51°8.329 2°33.927 10.236788 3.322187 30.128117  
2002-04-16 08:43:18 51°8.316 2°33.902 10.238798 3.322187 30.128797  
2002-04-16 08:43:23 51°8.303 2°33.876 10.583414 3.323689 30.145255  
2002-04-16 08:43:28 51°8.289 2°33.851 10.582437 3.324491 30.151946  
2002-04-16 08:43:33 51°8.276 2°33.825 10.278507 3.324991 30.157659  
2002-04-16 08:43:38 51°8.262 2°33.801 10.278507 3.324991 30.157659  
2002-04-16 08:43:43 51°8.247 2°33.779 10.050718 3.325993 30.169088  
2002-04-16 08:43:48 51°8.233 2°33.756 10.276405 3.326193 30.173145  
2002-04-16 08:43:53 51°8.217 2°33.734 10.466492 3.326594 30.173084  
2002-04-16 08:43:58 51°8.202 2°33.713 10.620823 3.326193 30.169057  
2002-04-16 08:44:03 51°8.187 2°33.69 10.738119 3.327495 30.180099  
2002-04-16 08:44:08 51°8.172 2°33.668 10.738119 3.327495 30.180099  
2002-04-16 08:44:13 51°8.158 2°33.645 10.584622 3.328196 30.187827  
2002-04-16 08:44:18 51°8.145 2°33.624 10.285231 3.329198 30.197211  
2002-04-16 08:44:23 51°8.132 2°33.605 10.13151 3.329398 30.199225  
2002-04-16 08:44:28 51°8.121 2°33.586 10.398095 3.330099 30.206271  
2002-04-16 08:44:33 51°8.11 2°33.568 10.130153 3.330901 30.214325  
2002-04-16 08:44:38 51°8.099 2°33.552 10.130153 3.330901 30.214325  
2002-04-16 08:44:42 51°8.091 2°33.54 10.247629 3.332003 30.224717  
2002-04-16 08:44:48 51°8.079 2°33.523 10.472732 3.332603 30.229393  
2002-04-16 08:44:53 51°8.07 2°33.509 10.017904 3.333705 30.239102  
2002-04-16 08:44:58 51°8.061 2°33.497 10.245013 3.334206 30.244136  
2002-04-16 08:45:03 51°8.052 2°33.485 10.548587 3.335107 30.251148  
2002-04-16 08:45:08 51°8.043 2°33.473 10.548587 3.335107 30.251148  
2002-04-16 08:45:13 51°8.035 2°33.462 10.241228 3.336209 30.261539  
2002-04-16 08:45:18 51°8.027 2°33.452 10.393433 3.33671 30.266573  
2002-04-16 08:45:22 51°8.021 2°33.444 10.511136 3.337612 30.274268  
2002-04-16 08:45:28 51°8.012 2°33.434 10.471289 3.338713 30.288761  
2002-04-16 08:45:33 51°8.004 2°33.425 10.202431 3.339515 30.294765  
2002-04-16 08:45:38 51°7.996 2°33.418 10.202431 3.339515 30.294765  
2002-04-16 08:45:43 51°7.989 2°33.411 9.860919 3.340015 30.300484  
2002-04-16 08:45:48 51°7.982 2°33.405 10.014528 3.341117 30.312246  
2002-04-16 08:45:53 51°7.974 2°33.398 9.939224 3.341217 30.314622  
2002-04-16 08:45:58 51°7.967 2°33.393 9.938285 3.341217 30.31599  
2002-04-16 08:46:03 51°7.96 2°33.387 10.16829 3.341618 30.322073  
2002-04-16 08:46:08 51°7.954 2°33.382 10.16829 3.341618 30.322073  
2002-04-16 08:46:13 51°7.947 2°33.377 10.246321 3.341418 30.318689  
2002-04-16 08:46:18 51°7.94 2°33.372 10.438219 3.341618 30.321388  
2002-04-16 08:46:23 51°7.934 2°33.367 10.287473 3.341217 30.31736  
2002-04-16 08:46:28 51°7.928 2°33.362 10.515091 3.34262 30.329406  
2002-04-16 08:46:33 51°7.921 2°33.357 10.477668 3.341518 30.319012  
2002-04-16 08:46:38 51°7.916 2°33.352 10.477668 3.341518 30.319012  
2002-04-16 08:46:43 51°7.91 2°33.346 10.438313 3.341518 30.316958  
2002-04-16 08:46:48 51°7.904 2°33.341 10.401684 3.341318 30.316313  
2002-04-16 08:46:53 51°7.899 2°33.335 10.367507 3.341518 30.318327  
2002-04-16 08:46:58 51°7.893 2°33.329 10.482696 3.341818 30.319295  
2002-04-16 08:47:03 51°7.888 2°33.323 10.561515 3.341618 30.317281  
2002-04-16 08:47:08 51°7.883 2°33.316 10.561515 3.341618 30.317281  
2002-04-16 08:47:13 51°7.878 2°33.309 10.676225 3.341618 30.317281  
2002-04-16 08:47:18 51°7.873 2°33.303 10.290041 3.342319 30.323646  
2002-04-16 08:47:23 51°7.869 2°33.296 10.446465 3.34252 30.326345  
2002-04-16 08:47:28 51°7.864 2°33.289 10.368719 3.34302 30.330696  
2002-04-16 08:47:33 51°7.86 2°33.282 10.290601 3.343521 30.334362  
2002-04-16 08:47:38 51°7.856 2°33.275 10.290601 3.343521 30.334362  
2002-04-16 08:47:43 51°7.852 2°33.268 10.366807 3.343922 30.337705  
2002-04-16 08:47:48 51°7.849 2°33.261 10.519791 3.344823 30.343344  
2002-04-16 08:47:53 51°7.845 2°33.253 10.482603 3.345625 30.352771  
2002-04-16 08:47:58 51°7.842 2°33.246 10.290975 3.346326 30.359136  
2002-04-16 08:48:03 51°7.838 2°33.239 10.524072 3.346626 30.360101  
2002-04-16 08:48:08 51°7.835 2°33.231 10.524072 3.346626 30.360101  
2002-04-16 08:48:13 51°7.832 2°33.224 10.367787 3.348028 30.373515  
2002-04-16 08:48:18 51°7.829 2°33.216 10.559004 3.348529 30.380607  
2002-04-16 08:48:23 51°7.826 2°33.209 10.218607 3.34893 30.38395  
2002-04-16 08:48:29 51°7.823 2°33.2 10.52477 3.34893 30.385322  
2002-04-16 08:48:33 51°7.822 2°33.194 10.141994 3.350833 30.405833  
2002-04-16 08:48:39 51°7.819 2°33.185 10.141994 3.350833 30.405833  
2002-04-16 08:48:43 51°7.818 2°33.179 10.485629 3.349731 30.392694  
2002-04-16 08:48:48 51°7.816 2°33.172 10.411286 3.350532 30.400066  
2002-04-16 08:48:53 51°7.815 2°33.165 10.065244 3.350933 30.405468  
2002-04-16 08:48:58 51°7.813 2°33.157 10.638615 3.351434 30.407759  
2002-04-16 08:49:03 51°7.812 2°33.15 10.293963 3.350533 30.400752  
2002-04-16 08:49:08 51°7.81 2°33.143 10.293963 3.350533 30.400752  
2002-04-16 08:49:13 51°7.809 2°33.137 10.524677 3.351734 30.412154  
2002-04-16 08:49:18 51°7.808 2°33.13 10.182042 3.352636 30.421906  
2002-04-16 08:49:23 51°7.807 2°33.123 10.528864 3.351935 30.412795  
2002-04-16 08:49:28 51°7.807 2°33.117 10.220711 3.352035 30.413116  
2002-04-16 08:49:33 51°7.806 2°33.11 10.560446 3.352135 30.415496  
2002-04-16 08:49:38 51°7.805 2°33.104 10.560446 3.352135 30.415496  
2002-04-16 08:49:43 51°7.805 2°33.097 10.408163 3.352135 30.41481  
2002-04-16 08:49:48 51°7.804 2°33.091 10.484419 3.352736 30.422227  
2002-04-16 08:49:53 51°7.804 2°33.085 10.333778 3.353137 30.424196  
2002-04-16 08:49:58 51°7.803 2°33.078 10.255478 3.353437 30.426532  
2002-04-16 08:50:03 51°7.802 2°33.072 10.36718 3.353337 30.424151  
2002-04-16 08:50:08 51°7.802 2°33.065 10.36718 3.353337 30.424151  
2002-04-16 08:50:13 51°7.802 2°33.058 10.290741 3.354138 30.432896  
2002-04-16 08:50:18 51°7.801 2°33.051 10.251974 3.354038 30.433262  
2002-04-16 08:50:23 51°7.801 2°33.044 10.291955 3.354138 30.435644  
2002-04-16 08:50:28 51°7.801 2°33.036 10.636664 3.354639 30.442055  
2002-04-16 08:50:33 51°7.801 2°33.029 10.255712 3.354239 30.435964  
2002-04-16 08:50:38 51°7.801 2°33.022 10.255712 3.354239 30.435964  
2002-04-16 08:50:42 51°7.801 2°33.016 10.406205 3.354739 30.44375  
2002-04-16 08:50:48 51°7.801 2°33.007 10.252675 3.355741 30.4552  
2002-04-16 08:50:53 51°7.802 2°32.999 10.212109 3.355841 30.45552  
2002-04-16 08:50:58 51°7.802 2°32.992 10.294617 3.355841 30.456895  
2002-04-16 08:51:03 51°7.803 2°32.984 10.258048 3.35534 30.450482  
2002-04-16 08:51:08 51°7.803 2°32.977 10.258048 3.35534 30.450482  
2002-04-16 08:51:13 51°7.804 2°32.969 10.370678 3.356042 30.460286  
2002-04-16 08:51:18 51°7.805 2°32.962 10.330419 3.356342 30.462621  
2002-04-16 08:51:23 51°7.807 2°32.954 10.256646 3.356442 30.464317  
2002-04-16 08:51:28 51°7.808 2°32.947 10.026531 3.356643 30.46702  
2002-04-16 08:51:33 51°7.809 2°32.94 10.411705 3.356242 30.462301  
2002-04-16 08:51:38 51°7.811 2°32.932 10.411705 3.356242 30.462301  
2002-04-16 08:51:43 51°7.812 2°32.925 10.598659 3.356843 30.469723  
2002-04-16 08:51:48 51°7.814 2°32.918 10.256226 3.356943 30.468667  
2002-04-16 08:51:53 51°7.816 2°32.91 10.176757 3.356242 30.461613  
2002-04-16 08:51:58 51°7.817 2°32.903 10.332845 3.357544 30.474714  
2002-04-16 08:52:03 51°7.819 2°32.895 10.291909 3.356943 30.469355  
2002-04-16 08:52:08 51°7.821 2°32.888 10.291909 3.356943 30.469355  
2002-04-16 08:52:13 51°7.823 2°32.881 10.520396 3.358145 30.48076  
2002-04-16 08:52:18 51°7.825 2°32.873 10.290181 3.357544 30.475402  
2002-04-16 08:52:23 51°7.827 2°32.866 10.255572 3.357644 30.476409  
2002-04-16 08:52:28 51°7.829 2°32.858 10.481765 3.357945 30.480121  
2002-04-16 08:52:33 51°7.83 2°32.851 10.446279 3.357744 30.476729  
2002-04-16 08:52:38 51°7.833 2°32.844 10.446279 3.357744 30.476729  
2002-04-16 08:52:43 51°7.835 2°32.836 10.332799 3.357845 30.477737  
2002-04-16 08:52:48 51°7.837 2°32.828 10.21426 3.358245 30.481768  
2002-04-16 08:52:53 51°7.839 2°32.821 10.330232 3.358145 30.482825  
2002-04-16 08:52:58 51°7.841 2°32.813 10.217205 3.358946 30.490199  
2002-04-16 08:53:03 51°7.843 2°32.806 10.139748 3.358145 30.481448  
2002-04-16 08:53:08 51°7.845 2°32.798 10.139748 3.358145 30.481448  
2002-04-16 08:53:13 51°7.847 2°32.791 10.409561 3.358646 30.485799  
2002-04-16 08:53:18 51°7.849 2°32.784 10.4049 3.358245 30.483144  
2002-04-16 08:53:22 51°7.851 2°32.778 10.177084 3.359247 30.492534  
2002-04-16 08:53:28 51°7.853 2°32.769 10.291909 3.358546 30.485479  
2002-04-16 08:53:33 51°7.855 2°32.763 10.175307 3.358646 30.485799  
2002-04-16 08:53:38 51°7.856 2°32.756 10.175307 3.358646 30.485799  
2002-04-16 08:53:43 51°7.858 2°32.749 10.25375 3.359047 30.48983  
2002-04-16 08:53:48 51°7.859 2°32.743 10.290461 3.314274 30.038454  
2002-04-16 08:53:53 51°7.861 2°32.736 10.557935 3.358546 30.485479  
2002-04-16 08:53:58 51°7.862 2°32.73 10.291302 3.359047 30.491207  
2002-04-16 08:54:03 51°7.863 2°32.724 10.558725 3.358045 30.479064  
2002-04-16 08:54:08 51°7.865 2°32.717 10.558725 3.358045 30.479064  
2002-04-16 08:54:13 51°7.865 2°32.712 10.368953 3.358245 30.481768